createdAt,value
2022-11-24T00:00:34.315Z,4.24
2022-11-24T00:03:05.998Z,4.32
2022-11-24T00:05:39.243Z,4.41
2022-11-24T00:08:12.695Z,4.50
2022-11-24T00:10:43.347Z,4.52
2022-11-24T00:13:14.094Z,4.51
2022-11-24T00:15:44.807Z,4.42
2022-11-24T00:18:15.527Z,4.49
2022-11-24T00:20:46.242Z,4.53
2022-11-24T00:23:19.583Z,4.56
2022-11-24T00:25:50.206Z,4.63
2022-11-24T00:28:20.943Z,4.71
2022-11-24T00:30:51.669Z,4.76
2022-11-24T00:33:22.387Z,4.76
2022-11-24T00:35:59.188Z,4.78
2022-11-24T00:38:32.448Z,4.71
2022-11-24T00:41:03.078Z,4.66
2022-11-24T00:43:33.705Z,4.63
2022-11-24T00:46:04.665Z,4.58
2022-11-24T00:48:35.866Z,4.54
2022-11-24T00:51:09.743Z,4.41
2022-11-24T00:53:43.503Z,4.29
2022-11-24T00:56:15.509Z,4.16
2022-11-24T00:58:46.114Z,4.00
2022-11-24T01:01:19.826Z,3.92
2022-11-24T01:03:50.972Z,3.87
2022-11-24T01:06:24.224Z,3.88
2022-11-24T01:08:58.965Z,3.88
2022-11-24T01:11:51.989Z,3.86
2022-11-24T01:14:23.520Z,3.89
2022-11-24T01:16:54.471Z,3.85
2022-11-24T01:19:26.169Z,3.79
2022-11-24T01:21:56.800Z,3.79
2022-11-24T01:24:30.175Z,3.84
2022-11-24T01:27:00.899Z,3.86
2022-11-24T01:29:31.863Z,3.83
2022-11-24T01:32:02.613Z,3.89
2022-11-24T01:34:33.468Z,3.94
2022-11-24T01:37:04.418Z,4.05
2022-11-24T01:39:37.712Z,4.20
2022-11-24T01:42:08.732Z,4.33
2022-11-24T01:44:39.402Z,4.38
2022-11-24T01:47:25.261Z,4.34
2022-11-24T01:50:02.139Z,4.39
2022-11-24T01:52:37.616Z,4.45
2022-11-24T01:55:17.168Z,4.52
2022-11-24T01:57:51.401Z,4.60
2022-11-24T02:00:22.450Z,4.66
2022-11-24T02:02:53.466Z,4.66
2022-11-24T02:05:29.295Z,4.60
2022-11-24T02:08:04.122Z,4.68
2022-11-24T02:10:37.536Z,4.76
2022-11-24T02:13:08.731Z,4.74
2022-11-24T02:15:39.167Z,4.75
2022-11-24T02:18:09.939Z,4.84
2022-11-24T02:20:40.707Z,4.86
2022-11-24T02:23:20.505Z,4.90
2022-11-24T02:26:02.126Z,4.91
2022-11-24T02:28:36.504Z,5.01
2022-11-24T02:31:09.109Z,5.11
2022-11-24T02:33:40.877Z,5.05
2022-11-24T02:36:11.937Z,4.99
2022-11-24T02:38:42.703Z,5.07
2022-11-24T02:41:20.077Z,5.12
2022-11-24T02:43:58.915Z,5.25
2022-11-24T02:46:29.681Z,5.31
2022-11-24T02:49:00.688Z,5.35
2022-11-24T02:51:31.422Z,5.41
2022-11-24T02:54:02.145Z,5.43
2022-11-24T02:56:33.065Z,5.45
2022-11-24T02:59:06.437Z,5.51
2022-11-24T03:01:37.241Z,5.57
2022-11-24T03:04:08.398Z,5.62
2022-11-24T03:06:38.981Z,5.62
2022-11-24T03:09:09.956Z,5.62
2022-11-24T03:11:41.534Z,5.62
2022-11-24T03:14:14.910Z,5.58
2022-11-24T03:16:45.597Z,5.62
2022-11-24T03:19:16.601Z,5.67
2022-11-24T03:21:47.311Z,5.66
2022-11-24T03:24:17.992Z,5.68
2022-11-24T03:26:48.733Z,5.72
2022-11-24T03:29:22.134Z,5.75
2022-11-24T03:31:52.847Z,5.75
2022-11-24T03:34:23.495Z,5.78
2022-11-24T03:36:54.496Z,5.81
2022-11-24T03:39:25.195Z,5.88
2022-11-24T03:41:55.900Z,5.92
2022-11-24T03:44:29.600Z,6.04
2022-11-24T03:47:00.250Z,6.04
2022-11-24T03:49:31.058Z,6.05
2022-11-24T03:52:07.667Z,5.97
2022-11-24T03:54:39.058Z,5.94
2022-11-24T03:57:09.828Z,5.90
2022-11-24T03:59:43.222Z,5.90
2022-11-24T04:02:14.041Z,5.83
2022-11-24T04:04:49.832Z,5.83
2022-11-24T04:07:21.309Z,5.82
2022-11-24T04:09:51.977Z,5.84
2022-11-24T04:12:34.958Z,5.82
2022-11-24T04:15:09.873Z,5.76
2022-11-24T04:17:40.305Z,5.66
2022-11-24T04:20:13.684Z,5.67
2022-11-24T04:22:44.250Z,5.63
2022-11-24T04:25:17.546Z,5.62
2022-11-24T04:27:47.988Z,5.64
2022-11-24T04:30:21.517Z,5.69
2022-11-24T04:32:52.302Z,5.74
2022-11-24T04:35:22.989Z,5.78
2022-11-24T04:37:53.555Z,5.86
2022-11-24T04:40:24.181Z,5.89
2022-11-24T04:42:58.808Z,5.93
2022-11-24T04:45:31.829Z,5.89
2022-11-24T04:48:02.233Z,5.75
2022-11-24T04:50:32.749Z,5.70
2022-11-24T04:53:03.275Z,5.72
2022-11-24T04:55:33.761Z,5.69
2022-11-24T04:58:04.259Z,5.75
2022-11-24T05:00:37.383Z,5.74
2022-11-24T05:03:08.787Z,5.78
2022-11-24T05:05:39.252Z,5.74
2022-11-24T05:08:09.779Z,5.76
2022-11-24T05:10:37.566Z,5.81
2022-11-24T05:13:12.020Z,5.82
2022-11-24T05:15:45.844Z,5.86
2022-11-24T05:18:17.838Z,5.89
2022-11-24T05:20:49.594Z,5.90
2022-11-24T05:23:20.135Z,5.89
2022-11-24T05:25:50.611Z,5.86
2022-11-24T05:28:21.761Z,5.91
2022-11-24T05:30:54.894Z,5.90
2022-11-24T05:33:25.275Z,5.85
2022-11-24T05:35:55.688Z,5.85
2022-11-24T05:38:26.660Z,5.77
2022-11-24T05:40:57.193Z,5.85
2022-11-24T05:43:28.364Z,5.83
2022-11-24T05:46:02.456Z,5.84
2022-11-24T05:48:33.301Z,5.87
2022-11-24T05:51:09.025Z,5.83
2022-11-24T05:53:39.738Z,5.77
2022-11-24T05:56:11.410Z,5.74
2022-11-24T05:58:41.767Z,5.80
2022-11-24T06:01:14.818Z,5.84
2022-11-24T06:03:45.212Z,5.85
2022-11-24T06:06:15.772Z,5.91
2022-11-24T06:08:46.197Z,5.92
2022-11-24T06:11:22.315Z,5.94
2022-11-24T06:13:52.772Z,5.91
2022-11-24T06:16:26.114Z,5.96
2022-11-24T06:18:56.536Z,5.92
2022-11-24T06:21:27.207Z,5.92
2022-11-24T06:23:57.678Z,5.95
2022-11-24T06:26:28.233Z,6.01
2022-11-24T06:28:58.879Z,6.17
2022-11-24T06:31:32.047Z,6.34
2022-11-24T06:34:02.671Z,6.42
2022-11-24T06:36:33.125Z,6.48
2022-11-24T06:39:04.825Z,6.54
2022-11-24T06:41:35.451Z,6.63
2022-11-24T06:44:07.135Z,6.67
2022-11-24T06:46:40.402Z,6.72
2022-11-24T06:49:10.776Z,6.74
2022-11-24T06:51:42.031Z,6.74
2022-11-24T06:54:17.125Z,6.78
2022-11-24T06:56:47.534Z,6.80
2022-11-24T06:59:22.017Z,6.82
2022-11-24T07:01:55.032Z,6.96
2022-11-24T07:04:25.382Z,6.95
2022-11-24T07:06:55.762Z,6.94
2022-11-24T07:09:26.184Z,6.98
2022-11-24T07:11:59.163Z,7.01
2022-11-24T07:14:29.550Z,7.07
2022-11-24T07:17:02.778Z,7.10
2022-11-24T07:19:33.172Z,7.12
2022-11-24T07:22:03.713Z,7.17
2022-11-24T07:24:34.384Z,7.21
2022-11-24T07:27:05.096Z,7.22
2022-11-24T07:29:35.549Z,7.18
2022-11-24T07:32:09.110Z,7.24
2022-11-24T07:34:40.169Z,7.29
2022-11-24T07:37:10.387Z,7.36
2022-11-24T07:39:40.797Z,7.29
2022-11-24T07:42:11.612Z,7.33
2022-11-24T07:44:42.058Z,7.27
2022-11-24T07:47:15.188Z,7.26
2022-11-24T07:49:45.563Z,7.20
2022-11-24T07:52:16.019Z,7.22
2022-11-24T07:54:46.479Z,7.32
2022-11-24T07:57:16.936Z,7.43
2022-11-24T07:59:47.348Z,7.47
2022-11-24T08:02:20.442Z,7.52
2022-11-24T08:04:51.020Z,7.56
2022-11-24T08:07:21.596Z,7.60
2022-11-24T08:09:52.807Z,7.64
2022-11-24T08:12:24.083Z,7.63
2022-11-24T08:14:54.842Z,7.69
2022-11-24T08:17:28.139Z,7.72
2022-11-24T08:19:58.490Z,7.76
2022-11-24T08:22:29.086Z,7.83
2022-11-24T08:24:59.533Z,7.88
2022-11-24T08:27:29.987Z,7.92
2022-11-24T08:30:00.540Z,7.98
2022-11-24T08:32:33.555Z,8.06
2022-11-24T08:35:18.665Z,8.10
2022-11-24T08:37:49.069Z,8.18
2022-11-24T08:40:20.671Z,8.26
2022-11-24T08:42:51.147Z,8.35
2022-11-24T08:45:24.678Z,8.41
2022-11-24T08:48:00.075Z,8.46
2022-11-24T08:50:30.522Z,8.55
2022-11-24T08:53:01.011Z,8.54
2022-11-24T08:55:31.395Z,8.55
2022-11-24T08:58:01.815Z,8.55
2022-11-24T09:00:32.595Z,8.58
2022-11-24T09:03:05.637Z,8.66
2022-11-24T09:05:52.936Z,8.63
2022-11-24T09:08:23.650Z,8.67
2022-11-24T09:10:54.861Z,8.65
2022-11-24T09:13:25.267Z,8.63
2022-11-24T09:15:55.716Z,8.77
2022-11-24T09:18:30.508Z,8.84
2022-11-24T09:21:10.864Z,8.94
2022-11-24T09:23:41.931Z,8.84
2022-11-24T09:26:13.695Z,8.98
2022-11-24T09:28:44.739Z,9.13
2022-11-24T09:31:16.680Z,9.21
2022-11-24T09:33:50.037Z,9.28
2022-11-24T09:36:20.535Z,9.21
2022-11-24T09:38:51.121Z,9.24
2022-11-24T09:41:43.669Z,9.33
2022-11-24T09:44:48.953Z,9.46
2022-11-24T09:47:35.134Z,9.40
2022-11-24T09:50:14.346Z,9.31
2022-11-24T09:52:53.257Z,9.27
2022-11-24T09:55:40.057Z,9.18
2022-11-24T09:58:24.740Z,9.31
2022-11-24T10:00:57.885Z,9.26
2022-11-24T10:03:33.412Z,9.31
2022-11-24T10:06:18.134Z,9.28
2022-11-24T10:09:16.804Z,9.28
2022-11-24T10:11:59.497Z,9.18
2022-11-24T10:14:54.401Z,9.15
2022-11-24T10:17:47.236Z,9.16
2022-11-24T10:20:27.533Z,9.22
2022-11-24T10:23:21.991Z,9.09
2022-11-24T10:26:00.412Z,9.24
2022-11-24T10:28:39.161Z,9.05
2022-11-24T10:31:27.381Z,8.98
2022-11-24T10:33:59.707Z,8.97
2022-11-24T10:36:39.025Z,9.00
2022-11-24T10:39:22.528Z,8.99
2022-11-24T10:41:57.630Z,8.97
2022-11-24T10:44:28.308Z,9.12
2022-11-24T10:46:58.781Z,9.27
2022-11-24T10:49:34.391Z,9.39
2022-11-24T10:52:10.259Z,9.39
2022-11-24T10:54:59.038Z,9.38
2022-11-24T10:57:35.579Z,9.40
2022-11-24T11:00:33.113Z,9.54
2022-11-24T11:03:21.969Z,9.64
2022-11-24T11:05:56.165Z,9.69
2022-11-24T11:08:29.597Z,9.61
2022-11-24T11:11:35.455Z,9.59
2022-11-24T11:14:09.081Z,9.61
2022-11-24T11:16:42.982Z,9.65
2022-11-24T11:19:54.251Z,9.85
2022-11-24T11:22:30.735Z,9.80
2022-11-24T11:25:21.656Z,9.89
2022-11-24T11:27:55.253Z,10.06
2022-11-24T11:36:19.677Z,10.30
2022-11-24T11:38:50.988Z,10.24
2022-11-24T11:41:27.309Z,10.36
2022-11-24T11:44:16.759Z,10.45
2022-11-24T11:46:48.337Z,10.44
2022-11-24T11:49:19.055Z,10.38
2022-11-24T11:52:07.212Z,10.22
2022-11-24T11:55:14.193Z,10.30
2022-11-24T11:57:55.645Z,10.37
2022-11-24T12:00:28.674Z,10.40
2022-11-24T12:03:36.615Z,10.23
2022-11-24T12:06:26.094Z,10.18
2022-11-24T12:09:23.965Z,10.37
2022-11-24T12:12:16.215Z,10.41
2022-11-24T12:15:10.331Z,10.48
2022-11-24T12:17:49.475Z,10.53
2022-11-24T12:20:40.397Z,10.63
2022-11-24T12:23:24.632Z,10.80
2022-11-24T12:26:03.886Z,10.75
2022-11-24T12:28:48.549Z,10.77
2022-11-24T12:31:32.006Z,10.79
2022-11-24T12:34:41.646Z,10.86
2022-11-24T12:37:29.311Z,10.88
2022-11-24T12:40:08.484Z,10.85
2022-11-24T12:42:49.485Z,10.88
2022-11-24T12:45:22.930Z,10.97
2022-11-24T12:48:22.713Z,11.02
2022-11-24T12:50:57.956Z,11.51
2022-11-24T12:53:32.534Z,11.85
2022-11-24T12:56:10.316Z,12.22
2022-11-24T12:58:50.493Z,12.71
2022-11-24T13:01:33.890Z,13.39
2022-11-24T13:04:14.056Z,13.56
2022-11-24T13:06:54.800Z,13.16
2022-11-24T13:09:25.288Z,12.95
2022-11-24T13:12:02.039Z,12.61
2022-11-24T13:14:37.477Z,12.68
2022-11-24T13:17:39.326Z,12.60
2022-11-24T13:20:28.952Z,12.30
2022-11-24T13:23:05.179Z,12.18
2022-11-24T13:25:37.810Z,11.96
2022-11-24T13:29:01.445Z,11.80
2022-11-24T13:31:35.560Z,11.73
2022-11-24T13:35:04.491Z,11.61
2022-11-24T13:37:52.995Z,11.49
2022-11-24T13:41:12.958Z,11.46
2022-11-24T13:43:37.896Z,11.37
2022-11-24T13:46:12.392Z,11.31
2022-11-24T13:49:03.575Z,11.24
2022-11-24T13:51:34.074Z,11.24
2022-11-24T13:54:05.359Z,11.21
2022-11-24T13:56:38.523Z,11.09
2022-11-24T13:59:22.842Z,11.00
2022-11-24T14:02:00.767Z,10.87
2022-11-24T14:04:33.432Z,10.64
2022-11-24T14:07:09.724Z,10.52
2022-11-24T14:09:47.177Z,10.43
2022-11-24T14:12:23.312Z,10.35
2022-11-24T14:14:55.828Z,10.24
2022-11-24T14:17:28.962Z,10.19
2022-11-24T14:20:01.215Z,10.15
2022-11-24T14:22:40.032Z,10.17
2022-11-24T14:25:26.144Z,10.14
2022-11-24T14:27:59.548Z,10.11
2022-11-24T14:30:30.304Z,10.06
2022-11-24T14:33:02.723Z,9.97
2022-11-24T14:35:36.923Z,9.94
2022-11-24T14:38:09.106Z,9.89
2022-11-24T14:40:45.149Z,9.84
2022-11-24T14:43:30.047Z,9.85
2022-11-24T14:46:04.361Z,9.91
2022-11-24T14:48:39.081Z,9.93
2022-11-24T14:51:17.403Z,9.95
2022-11-24T14:53:51.212Z,9.89
2022-11-24T14:56:29.059Z,9.90
2022-11-24T14:59:02.117Z,9.85
2022-11-24T15:01:36.310Z,9.84
2022-11-24T15:04:54.323Z,9.72
2022-11-24T15:07:22.222Z,9.64
2022-11-24T15:09:58.057Z,9.55
2022-11-24T15:12:34.932Z,9.47
2022-11-24T15:15:20.400Z,9.38
2022-11-24T15:17:53.651Z,9.37
2022-11-24T15:20:30.452Z,9.34
2022-11-24T15:23:25.735Z,9.39
2022-11-24T15:25:56.959Z,9.37
2022-11-24T15:28:28.466Z,9.42
2022-11-24T15:31:05.346Z,9.44
2022-11-24T15:33:36.298Z,9.55
2022-11-24T15:36:07.433Z,9.62
2022-11-24T15:38:37.579Z,9.61
2022-11-24T15:41:21.246Z,9.66
2022-11-24T15:43:58.852Z,9.71
2022-11-24T15:46:38.339Z,9.67
2022-11-24T15:49:09.672Z,9.70
2022-11-24T15:51:44.100Z,9.64
2022-11-24T15:54:18.396Z,9.61
2022-11-24T15:56:49.170Z,9.66
2022-11-24T15:59:21.294Z,9.66
2022-11-24T16:01:54.535Z,9.57
2022-11-24T16:04:24.946Z,9.60
2022-11-24T16:06:55.382Z,9.59
2022-11-24T16:09:25.854Z,9.61
2022-11-24T16:11:56.243Z,9.60
2022-11-24T16:14:26.807Z,9.49
2022-11-24T16:16:59.947Z,9.42
2022-11-24T16:19:31.086Z,9.34
2022-11-24T16:22:01.496Z,9.27
2022-11-24T16:24:32.531Z,9.26
2022-11-24T16:27:03.447Z,9.29
2022-11-24T16:29:38.176Z,9.36
2022-11-24T16:32:11.740Z,9.38
2022-11-24T16:34:42.149Z,9.30
2022-11-24T16:37:13.395Z,9.19
2022-11-24T16:39:49.792Z,9.19
2022-11-24T16:42:20.823Z,9.15
2022-11-24T16:44:52.137Z,9.19
2022-11-24T16:47:25.167Z,9.21
2022-11-24T16:49:55.609Z,9.21
2022-11-24T16:52:26.156Z,9.19
2022-11-24T16:54:56.675Z,9.21
2022-11-24T16:57:27.131Z,9.26
2022-11-24T16:59:57.592Z,9.28
2022-11-24T17:02:30.910Z,9.32
2022-11-24T17:05:01.398Z,9.30
2022-11-24T17:07:32.115Z,9.27
2022-11-24T17:10:02.912Z,9.27
2022-11-24T17:12:33.425Z,9.21
2022-11-24T17:15:31.214Z,9.22
2022-11-24T17:18:22.809Z,9.20
2022-11-24T17:20:47.500Z,9.12
2022-11-24T17:23:19.719Z,9.12
2022-11-24T17:25:51.089Z,9.11
2022-11-24T17:28:21.826Z,9.13
2022-11-24T17:30:52.272Z,9.15
2022-11-24T17:33:25.570Z,9.15
2022-11-24T17:35:55.956Z,9.10
2022-11-24T17:38:26.434Z,9.09
2022-11-24T17:40:56.905Z,9.04
2022-11-24T17:43:27.642Z,9.00
2022-11-24T17:45:59.509Z,8.99
2022-11-24T17:48:33.846Z,8.95
2022-11-24T17:51:07.972Z,8.96
2022-11-24T17:53:40.608Z,9.00
2022-11-24T17:56:15.603Z,9.02
2022-11-24T17:58:45.980Z,9.03
2022-11-24T18:01:17.036Z,9.04
2022-11-24T18:03:53.379Z,8.97
2022-11-24T18:06:25.778Z,8.93
2022-11-24T18:08:57.150Z,8.97
2022-11-24T18:11:31.787Z,9.01
2022-11-24T18:14:05.196Z,9.00
2022-11-24T18:16:37.543Z,9.00
2022-11-24T18:19:11.309Z,8.97
2022-11-24T18:21:43.893Z,8.93
2022-11-24T18:24:18.584Z,8.95
2022-11-24T18:26:51.519Z,8.95
2022-11-24T18:29:22.134Z,8.89
2022-11-24T18:31:52.650Z,8.88
2022-11-24T18:34:26.145Z,8.89
2022-11-24T18:36:56.616Z,8.90
2022-11-24T18:39:28.532Z,8.81
2022-11-24T18:41:59.153Z,8.84
2022-11-24T18:44:30.863Z,8.78
2022-11-24T18:47:01.322Z,8.76
2022-11-24T18:49:34.797Z,8.83
2022-11-24T18:52:05.346Z,8.85
2022-11-24T18:54:36.077Z,8.85
2022-11-24T18:57:07.072Z,8.86
2022-11-24T18:59:37.552Z,8.89
2022-11-24T19:02:08.167Z,8.97
2022-11-24T19:04:41.361Z,8.90
2022-11-24T19:07:12.285Z,8.91
2022-11-24T19:09:42.796Z,8.96
2022-11-24T19:12:13.913Z,9.02
2022-11-24T19:14:44.189Z,9.08
2022-11-24T19:17:14.708Z,9.06
2022-11-24T19:19:47.812Z,9.07
2022-11-24T19:22:18.431Z,9.02
2022-11-24T19:24:50.973Z,9.01
2022-11-24T19:27:22.066Z,9.05
2022-11-24T19:29:55.127Z,9.10
2022-11-24T19:32:25.638Z,9.11
2022-11-24T19:34:58.979Z,9.10
2022-11-24T19:37:31.192Z,9.08
2022-11-24T19:40:01.540Z,9.13
2022-11-24T19:42:32.055Z,9.14
2022-11-24T19:45:02.516Z,9.10
2022-11-24T19:47:33.174Z,9.11
2022-11-24T19:50:10.328Z,9.09
2022-11-24T19:52:41.177Z,9.13
2022-11-24T19:55:12.905Z,9.20
2022-11-24T19:57:43.396Z,9.22
2022-11-24T20:00:16.670Z,9.25
2022-11-24T20:02:47.115Z,9.29
2022-11-24T20:05:20.287Z,9.30
2022-11-24T20:07:51.171Z,9.34
2022-11-24T20:10:21.960Z,9.29
2022-11-24T20:12:52.354Z,9.26
2022-11-24T20:15:22.866Z,9.21
2022-11-24T20:17:53.603Z,9.18
2022-11-24T20:20:26.736Z,9.14
2022-11-24T20:22:57.138Z,9.15
2022-11-24T20:25:27.933Z,9.13
2022-11-24T20:27:58.559Z,9.17
2022-11-24T20:30:29.327Z,9.12
2022-11-24T20:33:00.283Z,9.07
2022-11-24T20:35:33.389Z,9.02
2022-11-24T20:38:03.799Z,9.00
2022-11-24T20:40:34.328Z,8.92
2022-11-24T20:43:04.794Z,8.87
2022-11-24T20:45:35.306Z,8.82
2022-11-24T20:48:05.885Z,8.80
2022-11-24T20:50:39.910Z,8.79
2022-11-24T20:53:10.306Z,8.83
2022-11-24T20:55:40.936Z,8.83
2022-11-24T20:58:11.507Z,8.78
2022-11-24T21:00:42.036Z,8.75
2022-11-24T21:03:12.507Z,8.76
2022-11-24T21:05:45.622Z,8.74
2022-11-24T21:08:17.847Z,8.71
2022-11-24T21:10:56.427Z,8.67
2022-11-24T21:13:27.392Z,8.67
2022-11-24T21:15:58.801Z,8.67
2022-11-24T21:18:29.367Z,8.67
2022-11-24T21:21:02.714Z,8.57
2022-11-24T21:23:33.188Z,8.50
2022-11-24T21:26:05.646Z,8.43
2022-11-24T21:28:37.167Z,8.45
2022-11-24T21:31:09.320Z,8.45
2022-11-24T21:33:45.044Z,8.56
2022-11-24T21:36:20.080Z,8.58
2022-11-24T21:38:54.464Z,8.65
2022-11-24T21:41:27.374Z,8.62
2022-11-24T21:43:58.529Z,8.63
2022-11-24T21:46:28.826Z,8.60
2022-11-24T21:48:59.390Z,8.57
2022-11-24T21:51:32.884Z,8.60
2022-11-24T21:54:03.267Z,8.55
2022-11-24T21:56:33.694Z,8.61
2022-11-24T21:59:04.195Z,8.61
2022-11-24T22:01:34.765Z,8.58
2022-11-24T22:04:05.229Z,8.58
2022-11-24T22:06:40.615Z,8.49
2022-11-24T22:09:16.395Z,8.41
2022-11-24T22:11:49.461Z,8.41
2022-11-24T22:14:19.950Z,8.39
2022-11-24T22:16:50.545Z,8.36
2022-11-24T22:19:21.584Z,8.34
2022-11-24T22:21:55.047Z,8.28
2022-11-24T22:24:27.465Z,8.28
2022-11-24T22:26:58.052Z,8.30
2022-11-24T22:29:28.589Z,8.30
2022-11-24T22:31:59.115Z,8.31
2022-11-24T22:34:29.644Z,8.22
2022-11-24T22:37:02.809Z,8.20
2022-11-24T22:39:33.210Z,8.19
2022-11-24T22:42:03.621Z,8.23
2022-11-24T22:44:34.372Z,8.19
2022-11-24T22:47:05.043Z,8.19
2022-11-24T22:49:35.552Z,8.19
2022-11-24T22:52:08.947Z,8.13
2022-11-24T22:54:39.333Z,8.18
2022-11-24T22:57:09.739Z,8.13
2022-11-24T22:59:40.175Z,8.10
2022-11-24T23:02:10.620Z,8.11
2022-11-24T23:04:41.074Z,8.13
2022-11-24T23:07:14.126Z,8.09
2022-11-24T23:09:44.509Z,8.03
2022-11-24T23:12:14.956Z,8.05
2022-11-24T23:14:45.432Z,8.09
2022-11-24T23:17:15.869Z,8.06
2022-11-24T23:19:46.501Z,8.08
2022-11-24T23:22:19.528Z,8.16
2022-11-24T23:24:49.934Z,8.17
2022-11-24T23:27:20.437Z,8.17
2022-11-24T23:29:50.954Z,8.20
2022-11-24T23:32:21.438Z,8.22
2022-11-24T23:34:52.066Z,8.17
2022-11-24T23:37:39.335Z,8.20
2022-11-24T23:40:16.344Z,8.15
2022-11-24T23:42:49.698Z,8.15
2022-11-24T23:45:20.293Z,8.17
2022-11-24T23:47:50.721Z,8.11
2022-11-24T23:50:21.432Z,8.14
2022-11-24T23:52:54.472Z,8.14
2022-11-24T23:55:24.808Z,8.16
2022-11-24T23:57:55.158Z,8.11
